createdAt,value
2023-03-06T00:01:30.011Z,3.02
2023-03-06T00:04:32.706Z,3.06
2023-03-06T00:07:35.175Z,3.06
2023-03-06T00:10:38.206Z,3.01
2023-03-06T00:13:40.652Z,2.95
2023-03-06T00:16:43.281Z,2.93
2023-03-06T00:19:45.952Z,2.90
2023-03-06T00:22:49.434Z,2.88
2023-03-06T00:25:51.774Z,2.88
2023-03-06T00:28:54.474Z,2.89
2023-03-06T00:31:56.770Z,2.90
2023-03-06T00:34:59.314Z,2.94
2023-03-06T00:38:01.914Z,2.95
2023-03-06T00:41:11.756Z,2.93
2023-03-06T00:44:14.061Z,2.92
2023-03-06T00:47:19.549Z,2.91
2023-03-06T00:50:21.827Z,2.89
2023-03-06T00:53:25.377Z,2.95
2023-03-06T00:56:27.681Z,3.04
2023-03-06T00:59:30.406Z,3.01
2023-03-06T01:02:32.831Z,3.05
2023-03-06T01:05:38.713Z,3.02
2023-03-06T01:08:42.137Z,3.03
2023-03-06T01:11:44.869Z,3.03
2023-03-06T01:14:47.199Z,2.99
2023-03-06T01:17:52.668Z,2.96
2023-03-06T01:20:54.909Z,2.94
2023-03-06T01:23:57.561Z,2.94
2023-03-06T01:26:59.919Z,3.00
2023-03-06T01:30:02.919Z,2.99
2023-03-06T01:33:05.325Z,2.98
2023-03-06T01:36:09.103Z,3.04
2023-03-06T01:39:11.652Z,3.09
2023-03-06T01:42:14.752Z,3.05
2023-03-06T01:45:18.376Z,3.01
2023-03-06T01:48:22.294Z,3.02
2023-03-06T01:51:27.520Z,3.00
2023-03-06T01:54:35.783Z,3.00
2023-03-06T01:57:40.956Z,2.99
2023-03-06T02:00:44.213Z,2.95
2023-03-06T02:03:49.690Z,2.94
2023-03-06T02:06:52.397Z,2.93
2023-03-06T02:09:55.036Z,3.03
2023-03-06T02:12:58.726Z,3.07
2023-03-06T02:16:01.585Z,3.14
2023-03-06T02:19:04.917Z,3.21
2023-03-06T02:22:07.342Z,3.24
2023-03-06T02:25:15.832Z,3.28
2023-03-06T02:28:21.183Z,3.24
2023-03-06T02:31:25.942Z,3.17
2023-03-06T02:34:28.217Z,3.15
2023-03-06T02:37:30.838Z,3.15
2023-03-06T02:40:34.155Z,3.21
2023-03-06T02:43:38.835Z,3.18
2023-03-06T02:46:41.202Z,3.26
2023-03-06T02:49:43.955Z,3.24
2023-03-06T02:52:47.107Z,3.22
2023-03-06T02:55:50.128Z,3.24
2023-03-06T02:58:52.505Z,3.35
2023-03-06T03:01:55.642Z,3.31
2023-03-06T03:04:58.920Z,3.26
2023-03-06T03:08:01.966Z,3.30
2023-03-06T03:11:04.608Z,3.32
2023-03-06T03:14:07.468Z,3.29
2023-03-06T03:17:09.882Z,3.31
2023-03-06T03:20:13.947Z,3.29
2023-03-06T03:23:16.506Z,3.26
2023-03-06T03:26:20.540Z,3.29
2023-03-06T03:29:23.686Z,3.28
2023-03-06T03:32:26.994Z,3.26
2023-03-06T03:35:29.846Z,3.24
2023-03-06T03:38:33.735Z,3.22
2023-03-06T03:41:36.262Z,3.26
2023-03-06T03:44:39.668Z,3.23
2023-03-06T03:47:42.310Z,3.23
2023-03-06T03:50:45.444Z,3.20
2023-03-06T03:53:49.313Z,3.20
2023-03-06T03:56:53.328Z,3.20
2023-03-06T03:59:56.769Z,3.22
2023-03-06T04:02:59.838Z,3.34
2023-03-06T04:06:02.936Z,3.30
2023-03-06T04:09:06.109Z,3.23
2023-03-06T04:12:10.006Z,3.31
2023-03-06T04:15:12.509Z,3.35
2023-03-06T04:18:16.633Z,3.33
2023-03-06T04:21:19.370Z,3.26
2023-03-06T04:24:22.711Z,3.37
2023-03-06T04:27:25.147Z,3.36
2023-03-06T04:30:28.260Z,3.31
2023-03-06T04:33:31.307Z,3.30
2023-03-06T04:36:35.058Z,3.29
2023-03-06T04:39:37.763Z,3.44
2023-03-06T04:42:40.352Z,3.38
2023-03-06T04:45:42.724Z,3.35
2023-03-06T04:48:45.585Z,3.33
2023-03-06T04:51:47.984Z,3.38
2023-03-06T04:54:50.654Z,3.28
2023-03-06T04:57:53.168Z,3.35
2023-03-06T05:00:55.875Z,3.23
2023-03-06T05:03:58.165Z,3.23
2023-03-06T05:07:00.748Z,3.15
2023-03-06T05:10:03.402Z,3.09
2023-03-06T05:13:06.104Z,3.09
2023-03-06T05:16:11.100Z,3.11
2023-03-06T05:19:14.136Z,3.09
2023-03-06T05:22:16.634Z,3.10
2023-03-06T05:25:20.071Z,3.07
2023-03-06T05:28:22.525Z,3.25
2023-03-06T05:31:25.490Z,3.19
2023-03-06T05:34:27.958Z,3.15
2023-03-06T05:37:30.863Z,3.11
2023-03-06T05:40:33.540Z,3.24
2023-03-06T05:43:36.148Z,3.17
2023-03-06T05:46:38.592Z,3.12
2023-03-06T05:49:41.370Z,3.12
2023-03-06T05:52:43.874Z,3.20
2023-03-06T05:55:54.838Z,3.14
2023-03-06T05:58:57.281Z,3.10
2023-03-06T06:02:01.396Z,3.03
2023-03-06T06:05:04.337Z,3.04
2023-03-06T06:08:06.671Z,3.04
2023-03-06T06:11:10.123Z,2.96
2023-03-06T06:14:12.791Z,2.98
2023-03-06T06:17:16.680Z,2.95
2023-03-06T06:20:19.378Z,2.98
2023-03-06T06:23:22.132Z,3.02
2023-03-06T06:26:24.494Z,3.11
2023-03-06T06:29:27.911Z,3.09
2023-03-06T06:32:30.369Z,3.13
2023-03-06T06:35:35.390Z,3.05
2023-03-06T06:38:37.789Z,3.00
2023-03-06T06:41:55.243Z,2.78
2023-03-06T06:44:59.489Z,2.86
2023-03-06T06:48:02.132Z,2.92
2023-03-06T06:51:04.754Z,2.97
2023-03-06T06:54:08.310Z,3.11
2023-03-06T06:57:11.674Z,3.17
2023-03-06T07:00:14.862Z,3.22
2023-03-06T07:03:20.126Z,3.32
2023-03-06T07:06:22.827Z,3.22
2023-03-06T07:09:25.396Z,3.27
2023-03-06T07:12:28.556Z,3.37
2023-03-06T07:15:30.968Z,3.29
2023-03-06T07:18:33.617Z,3.38
2023-03-06T07:21:36.308Z,3.52
2023-03-06T07:24:39.011Z,3.62
2023-03-06T07:27:41.378Z,3.61
2023-03-06T07:30:44.160Z,3.61
2023-03-06T07:33:46.780Z,3.78
2023-03-06T07:36:50.857Z,3.87
2023-03-06T07:39:53.196Z,3.94
2023-03-06T07:43:06.108Z,4.04
2023-03-06T07:46:15.893Z,4.04
2023-03-06T07:49:18.567Z,4.09
2023-03-06T07:52:21.017Z,4.06
2023-03-06T07:55:23.914Z,4.08
2023-03-06T07:58:26.711Z,4.08
2023-03-06T08:01:29.509Z,3.93
2023-03-06T08:04:32.244Z,3.92
2023-03-06T08:07:34.507Z,3.90
2023-03-06T08:10:37.354Z,3.90
2023-03-06T08:13:40.056Z,3.92
2023-03-06T08:16:43.028Z,3.92
2023-03-06T08:19:45.442Z,3.96
2023-03-06T08:22:49.059Z,3.94
2023-03-06T08:25:55.357Z,4.02
2023-03-06T08:28:58.985Z,4.05
2023-03-06T08:32:01.352Z,4.34
2023-03-06T08:35:04.880Z,4.40
2023-03-06T08:38:07.158Z,4.51
2023-03-06T08:41:09.993Z,4.55
2023-03-06T08:44:12.597Z,4.80
2023-03-06T08:47:15.254Z,5.25
2023-03-06T08:50:18.975Z,5.48
2023-03-06T08:53:30.436Z,5.38
2023-03-06T08:56:39.417Z,5.57
2023-03-06T08:59:42.294Z,5.39
2023-03-06T09:02:45.003Z,5.77
2023-03-06T09:05:47.730Z,6.15
2023-03-06T09:08:54.049Z,5.92
2023-03-06T09:11:56.906Z,5.78
2023-03-06T09:14:59.336Z,5.74
2023-03-06T09:18:01.965Z,5.88
2023-03-06T09:21:07.483Z,6.33
2023-03-06T09:24:10.178Z,7.13
2023-03-06T09:27:12.512Z,7.36
2023-03-06T09:30:15.887Z,7.55
2023-03-06T09:33:18.319Z,7.75
2023-03-06T09:36:22.369Z,7.76
2023-03-06T09:39:25.877Z,8.03
2023-03-06T09:42:29.096Z,7.62
2023-03-06T09:45:35.146Z,8.34
2023-03-06T09:48:55.810Z,8.85
2023-03-06T09:52:02.244Z,8.90
2023-03-06T09:55:05.017Z,8.74
2023-03-06T09:58:14.656Z,8.42
2023-03-06T10:01:25.992Z,7.77
2023-03-06T10:04:37.158Z,8.02
2023-03-06T10:07:44.666Z,8.68
2023-03-06T10:11:07.658Z,9.03
2023-03-06T10:14:12.821Z,8.87
2023-03-06T10:17:20.791Z,8.22
2023-03-06T10:20:26.247Z,7.50
2023-03-06T10:23:37.473Z,7.87
2023-03-06T10:26:43.489Z,8.06
2023-03-06T10:30:02.730Z,8.09
2023-03-06T10:33:25.931Z,7.78
2023-03-06T10:36:29.737Z,7.85
2023-03-06T10:39:32.152Z,7.68
2023-03-06T10:42:34.801Z,7.31
2023-03-06T10:45:49.332Z,6.95
2023-03-06T10:48:57.904Z,6.32
2023-03-06T10:52:03.317Z,6.54
2023-03-06T10:55:23.997Z,6.41
2023-03-06T10:58:27.692Z,6.45
2023-03-06T11:01:30.645Z,6.51
2023-03-06T11:04:34.016Z,6.60
2023-03-06T11:07:36.928Z,6.82
2023-03-06T11:10:39.446Z,6.79
2023-03-06T11:13:44.088Z,7.03
2023-03-06T11:16:52.743Z,6.98
2023-03-06T11:20:14.040Z,6.75
2023-03-06T11:23:34.939Z,6.46
2023-03-06T11:26:51.294Z,6.86
2023-03-06T11:29:55.101Z,6.94
2023-03-06T11:33:00.864Z,6.85
2023-03-06T11:36:15.505Z,7.05
2023-03-06T11:39:33.188Z,6.65
2023-03-06T11:42:54.320Z,7.21
2023-03-06T11:46:00.315Z,7.38
2023-03-06T11:49:17.364Z,7.43
2023-03-06T11:52:23.887Z,7.31
2023-03-06T11:55:49.591Z,6.99
2023-03-06T11:59:02.268Z,7.30
2023-03-06T12:02:10.668Z,7.25
2023-03-06T12:05:31.916Z,7.04
2023-03-06T12:08:34.352Z,7.09
2023-03-06T12:11:48.530Z,7.15
2023-03-06T12:14:53.717Z,7.23
2023-03-06T12:17:59.250Z,6.67
2023-03-06T12:21:15.420Z,6.97
2023-03-06T12:24:18.041Z,7.11
2023-03-06T12:27:23.077Z,7.01
2023-03-06T12:30:31.916Z,6.95
2023-03-06T12:33:34.303Z,6.87
2023-03-06T12:36:36.862Z,6.97
2023-03-06T12:39:48.194Z,7.08
2023-03-06T12:42:56.993Z,6.77
2023-03-06T12:46:03.596Z,6.82
2023-03-06T12:49:26.317Z,7.05
2023-03-06T12:52:34.894Z,7.17
2023-03-06T12:55:40.728Z,7.16
2023-03-06T12:58:43.245Z,7.23
2023-03-06T13:01:48.732Z,7.11
2023-03-06T13:05:03.538Z,7.04
2023-03-06T13:08:25.218Z,6.97
2023-03-06T13:11:36.729Z,7.10
2023-03-06T13:14:42.378Z,7.08
2023-03-06T13:17:50.959Z,6.81
2023-03-06T13:20:56.180Z,6.81
2023-03-06T13:24:05.781Z,6.85
2023-03-06T13:27:10.098Z,6.74
2023-03-06T13:30:45.305Z,6.83
2023-03-06T13:33:52.138Z,6.80
2023-03-06T13:37:14.405Z,6.25
2023-03-06T13:40:25.433Z,6.47
2023-03-06T13:43:27.902Z,6.37
2023-03-06T13:46:30.970Z,6.68
2023-03-06T13:49:33.966Z,6.72
2023-03-06T13:52:47.631Z,6.92
2023-03-06T13:56:17.775Z,6.85
2023-03-06T13:59:39.228Z,6.94
2023-03-06T14:02:41.802Z,7.11
2023-03-06T14:05:45.959Z,7.14
2023-03-06T14:08:48.406Z,6.99
2023-03-06T14:11:57.551Z,7.15
2023-03-06T14:15:12.257Z,6.95
2023-03-06T14:18:14.810Z,7.03
2023-03-06T14:21:25.058Z,6.93
2023-03-06T14:24:36.932Z,6.71
2023-03-06T14:27:49.822Z,6.86
2023-03-06T14:30:53.212Z,6.54
2023-03-06T14:34:00.009Z,6.42
2023-03-06T14:37:05.556Z,6.39
2023-03-06T14:40:11.391Z,6.51
2023-03-06T14:43:20.541Z,6.18
2023-03-06T14:46:23.314Z,6.18
2023-03-06T14:49:26.890Z,6.23
2023-03-06T14:52:29.345Z,6.17
2023-03-06T14:55:33.537Z,6.33
2023-03-06T14:58:38.669Z,6.27
2023-03-06T15:01:42.364Z,6.07
2023-03-06T15:04:47.104Z,6.03
2023-03-06T15:07:50.790Z,6.15
2023-03-06T15:11:03.542Z,6.07
2023-03-06T15:14:06.204Z,6.22
2023-03-06T15:17:34.836Z,6.23
2023-03-06T15:20:54.560Z,6.18
2023-03-06T15:23:57.427Z,5.99
2023-03-06T15:27:01.625Z,6.03
2023-03-06T15:30:11.618Z,5.92
2023-03-06T15:33:20.388Z,5.84
2023-03-06T15:36:29.532Z,5.66
2023-03-06T15:39:33.853Z,5.54
2023-03-06T15:42:36.627Z,5.53
2023-03-06T15:45:39.495Z,5.36
2023-03-06T15:48:51.836Z,5.27
2023-03-06T15:51:54.581Z,5.35
2023-03-06T15:54:56.931Z,5.08
2023-03-06T15:58:02.114Z,5.06
2023-03-06T16:01:04.606Z,5.00
2023-03-06T16:04:07.302Z,5.03
2023-03-06T16:07:09.720Z,4.92
2023-03-06T16:10:16.376Z,4.96
2023-03-06T16:13:25.724Z,4.77
2023-03-06T16:16:36.004Z,4.83
2023-03-06T16:19:39.282Z,4.72
2023-03-06T16:22:41.929Z,4.62
2023-03-06T16:25:48.489Z,4.62
2023-03-06T16:28:51.412Z,4.59
2023-03-06T16:31:55.197Z,4.53
2023-03-06T16:35:00.308Z,4.39
2023-03-06T16:38:02.657Z,4.37
2023-03-06T16:41:05.410Z,4.45
2023-03-06T16:44:07.864Z,4.43
2023-03-06T16:47:11.805Z,4.40
2023-03-06T16:50:20.078Z,4.37
2023-03-06T16:53:22.651Z,4.38
2023-03-06T16:56:25.116Z,4.36
2023-03-06T16:59:27.838Z,4.34
2023-03-06T17:02:30.241Z,4.27
2023-03-06T17:05:35.596Z,4.26
2023-03-06T17:08:37.956Z,4.32
2023-03-06T17:11:43.386Z,4.32
2023-03-06T17:14:45.850Z,4.20
2023-03-06T17:17:48.756Z,4.26
2023-03-06T17:20:51.874Z,4.09
2023-03-06T17:23:54.516Z,4.14
2023-03-06T17:26:56.944Z,4.09
2023-03-06T17:30:00.018Z,4.04
2023-03-06T17:33:02.927Z,4.08
2023-03-06T17:36:05.725Z,4.04
2023-03-06T17:39:08.100Z,4.07
2023-03-06T17:42:10.895Z,4.01
2023-03-06T17:45:13.856Z,3.99
2023-03-06T17:48:16.554Z,3.92
2023-03-06T17:51:19.023Z,3.83
2023-03-06T17:54:22.166Z,3.86
2023-03-06T17:57:24.610Z,3.80
2023-03-06T18:00:27.316Z,3.87
2023-03-06T18:03:30.108Z,3.95
2023-03-06T18:06:33.570Z,3.89
2023-03-06T18:09:37.376Z,3.83
2023-03-06T18:12:40.092Z,3.81
2023-03-06T18:15:43.012Z,3.83
2023-03-06T18:18:45.740Z,3.89
2023-03-06T18:21:48.326Z,3.88
2023-03-06T18:24:51.044Z,3.83
2023-03-06T18:27:53.726Z,3.83
2023-03-06T18:30:56.134Z,3.87
2023-03-06T18:33:59.753Z,4.00
2023-03-06T18:37:02.240Z,3.89
2023-03-06T18:40:05.202Z,3.91
2023-03-06T18:43:07.913Z,3.95
2023-03-06T18:46:11.030Z,3.98
2023-03-06T18:49:14.530Z,3.96
2023-03-06T18:52:17.194Z,3.94
2023-03-06T18:55:21.997Z,3.97
2023-03-06T18:58:24.727Z,3.90
2023-03-06T19:01:30.662Z,3.88
2023-03-06T19:04:33.682Z,3.78
2023-03-06T19:07:36.165Z,3.70
2023-03-06T19:10:39.840Z,3.78
2023-03-06T19:13:42.837Z,3.65
2023-03-06T19:16:46.270Z,3.70
2023-03-06T19:19:49.412Z,3.64
2023-03-06T19:22:53.204Z,3.63
2023-03-06T19:25:56.799Z,3.58
2023-03-06T19:28:59.517Z,3.52
2023-03-06T19:32:02.547Z,3.65
2023-03-06T19:35:05.946Z,3.55
2023-03-06T19:38:10.034Z,3.54
2023-03-06T19:41:13.847Z,3.72
2023-03-06T19:44:16.447Z,3.55
2023-03-06T19:47:19.221Z,3.55
2023-03-06T19:50:22.004Z,3.54
2023-03-06T19:53:24.786Z,3.43
2023-03-06T19:56:28.933Z,3.46
2023-03-06T19:59:32.295Z,3.65
2023-03-06T20:02:35.682Z,3.55
2023-03-06T20:05:45.031Z,3.31
2023-03-06T20:08:47.904Z,3.17
2023-03-06T20:11:50.744Z,3.14
2023-03-06T20:14:53.092Z,3.12
2023-03-06T20:17:56.800Z,3.05
2023-03-06T20:21:04.300Z,3.05
2023-03-06T20:24:07.880Z,3.00
2023-03-06T20:27:10.329Z,2.96
2023-03-06T20:30:13.461Z,3.01
2023-03-06T20:33:16.785Z,3.01
2023-03-06T20:36:19.383Z,3.00
2023-03-06T20:39:22.243Z,3.10
2023-03-06T20:42:24.798Z,3.28
2023-03-06T20:45:27.096Z,3.21
2023-03-06T20:48:29.783Z,3.13
2023-03-06T20:51:33.905Z,3.17
2023-03-06T20:54:36.741Z,3.18
2023-03-06T20:57:39.142Z,3.10
2023-03-06T21:00:41.974Z,3.05
2023-03-06T21:03:44.560Z,3.15
2023-03-06T21:06:47.720Z,3.08
2023-03-06T21:09:51.757Z,3.13
2023-03-06T21:12:54.608Z,3.19
2023-03-06T21:15:59.931Z,3.18
2023-03-06T21:19:02.865Z,3.17
2023-03-06T21:22:05.311Z,3.08
2023-03-06T21:25:08.070Z,3.03
2023-03-06T21:28:10.436Z,2.98
2023-03-06T21:31:14.269Z,2.96
2023-03-06T21:34:17.016Z,2.98
2023-03-06T21:37:19.622Z,3.09
2023-03-06T21:40:22.051Z,3.07
2023-03-06T21:43:24.709Z,3.02
2023-03-06T21:46:27.491Z,3.02
2023-03-06T21:49:30.594Z,3.02
2023-03-06T21:52:32.958Z,3.09
2023-03-06T21:55:38.342Z,3.11
2023-03-06T21:58:41.204Z,3.06
2023-03-06T22:01:44.137Z,3.00
2023-03-06T22:04:53.345Z,3.05
2023-03-06T22:07:55.695Z,3.09
2023-03-06T22:10:58.410Z,3.03
2023-03-06T22:14:00.817Z,2.96
2023-03-06T22:17:03.498Z,2.97
2023-03-06T22:20:06.654Z,3.07
2023-03-06T22:23:09.438Z,3.01
2023-03-06T22:26:13.661Z,2.95
2023-03-06T22:29:16.685Z,3.09
2023-03-06T22:32:19.223Z,3.01
2023-03-06T22:35:21.926Z,2.93
2023-03-06T22:38:24.333Z,2.93
2023-03-06T22:41:27.272Z,2.91
2023-03-06T22:44:29.954Z,2.97
2023-03-06T22:47:35.398Z,2.86
2023-03-06T22:50:37.731Z,2.84
2023-03-06T22:53:40.518Z,2.74
2023-03-06T22:56:42.800Z,2.74
2023-03-06T22:59:45.464Z,2.75
2023-03-06T23:02:48.049Z,2.74
2023-03-06T23:05:51.004Z,2.67
2023-03-06T23:08:56.765Z,2.68
2023-03-06T23:11:58.894Z,2.65
2023-03-06T23:15:20.324Z,2.67
2023-03-06T23:18:41.792Z,2.59
2023-03-06T23:22:02.960Z,2.64
2023-03-06T23:25:24.340Z,2.47
2023-03-06T23:28:27.614Z,2.42
2023-03-06T23:31:30.428Z,2.51
2023-03-06T23:34:33.252Z,2.42
2023-03-06T23:37:35.546Z,2.46
2023-03-06T23:40:38.658Z,2.56
2023-03-06T23:43:41.230Z,2.63
2023-03-06T23:46:43.900Z,2.46
2023-03-06T23:49:46.305Z,2.35
2023-03-06T23:52:51.385Z,2.23
2023-03-06T23:55:54.380Z,2.27
2023-03-06T23:58:57.074Z,2.12
